createdAt,value
2019-05-26T00:00:49.471Z,10.10
2019-05-26T00:01:54.484Z,10.07
2019-05-26T00:03:00.605Z,10.06
2019-05-26T00:04:05.969Z,10.04
2019-05-26T00:05:10.864Z,10.04
2019-05-26T00:06:16.305Z,10.06
2019-05-26T00:07:30.298Z,10.08
2019-05-26T00:08:27.527Z,10.07
2019-05-26T00:09:32.129Z,10.04
2019-05-26T00:10:37.212Z,10.05
2019-05-26T00:11:41.669Z,10.03
2019-05-26T00:12:47.454Z,10.01
2019-05-26T00:13:52.006Z,10.02
2019-05-26T00:14:57.056Z,10.01
2019-05-26T00:16:01.572Z,10.00
2019-05-26T00:17:06.620Z,9.98
2019-05-26T00:18:11.205Z,10.01
2019-05-26T00:19:16.227Z,10.03
2019-05-26T00:20:21.018Z,10.05
2019-05-26T00:21:26.337Z,10.06
2019-05-26T00:22:30.831Z,10.10
2019-05-26T00:23:36.304Z,10.12
2019-05-26T00:24:40.814Z,10.13
2019-05-26T00:25:45.895Z,10.09
2019-05-26T00:26:50.467Z,10.11
2019-05-26T00:27:55.546Z,10.10
2019-05-26T00:29:00.259Z,10.09
2019-05-26T00:30:10.502Z,10.11
2019-05-26T00:31:14.925Z,10.11
2019-05-26T00:32:19.996Z,10.08
2019-05-26T00:33:24.522Z,10.11
2019-05-26T00:34:29.619Z,10.09
2019-05-26T00:35:34.110Z,10.09
2019-05-26T00:36:39.552Z,10.12
2019-05-26T00:37:49.858Z,10.10
2019-05-26T00:38:51.007Z,10.08
2019-05-26T00:39:55.696Z,10.11
2019-05-26T00:41:00.804Z,10.09
2019-05-26T00:42:05.904Z,10.07
2019-05-26T00:43:11.048Z,10.08
2019-05-26T00:44:15.529Z,10.07
2019-05-26T00:45:21.307Z,10.04
2019-05-26T00:46:25.847Z,10.01
2019-05-26T00:47:30.846Z,10.00
2019-05-26T00:48:35.447Z,10.00
2019-05-26T00:49:40.600Z,9.96
2019-05-26T00:50:45.992Z,9.99
2019-05-26T00:51:51.332Z,10.00
2019-05-26T00:52:56.871Z,9.98
2019-05-26T00:54:02.103Z,9.97
2019-05-26T00:55:10.352Z,9.96
2019-05-26T00:56:15.411Z,9.93
2019-05-26T00:57:19.896Z,9.91
2019-05-26T00:58:25.569Z,9.95
2019-05-26T00:59:30.290Z,9.98
2019-05-26T01:00:43.715Z,9.97
2019-05-26T01:01:48.195Z,9.99
2019-05-26T01:02:54.216Z,10.01
2019-05-26T01:03:58.688Z,10.02
2019-05-26T01:05:03.956Z,10.03
2019-05-26T01:06:08.508Z,10.05
2019-05-26T01:07:13.884Z,10.03
2019-05-26T01:08:18.780Z,10.00
2019-05-26T01:09:23.804Z,9.97
2019-05-26T01:10:28.288Z,9.95
2019-05-26T01:11:33.290Z,9.91
2019-05-26T01:12:38.067Z,9.87
2019-05-26T01:13:43.073Z,9.83
2019-05-26T01:14:47.585Z,9.76
2019-05-26T01:15:53.985Z,9.72
2019-05-26T01:16:58.737Z,9.66
2019-05-26T01:18:04.051Z,9.64
2019-05-26T01:19:10.628Z,9.63
2019-05-26T01:20:17.509Z,9.59
2019-05-26T01:21:22.166Z,9.56
2019-05-26T01:22:27.189Z,9.54
2019-05-26T01:23:31.681Z,9.51
2019-05-26T01:24:36.915Z,9.46
2019-05-26T01:25:42.375Z,9.46
2019-05-26T01:26:47.457Z,9.43
2019-05-26T01:27:51.878Z,9.39
2019-05-26T01:28:57.065Z,9.38
2019-05-26T01:30:01.641Z,9.37
2019-05-26T01:31:06.809Z,9.34
2019-05-26T01:32:11.265Z,9.32
2019-05-26T01:33:16.321Z,9.29
2019-05-26T01:34:20.835Z,9.31
2019-05-26T01:35:25.836Z,9.28
2019-05-26T01:36:30.492Z,9.22
2019-05-26T01:37:36.443Z,9.18
2019-05-26T01:38:41.605Z,9.16
2019-05-26T01:39:46.758Z,9.14
2019-05-26T01:40:51.183Z,9.12
2019-05-26T01:41:56.192Z,9.10
2019-05-26T01:43:00.615Z,9.08
2019-05-26T01:44:06.025Z,9.07
2019-05-26T01:45:11.974Z,9.04
2019-05-26T01:46:16.981Z,8.99
2019-05-26T01:47:21.402Z,9.00
2019-05-26T01:48:26.405Z,8.98
2019-05-26T01:49:31.248Z,8.94
2019-05-26T01:50:36.435Z,8.88
2019-05-26T01:51:41.305Z,8.85
2019-05-26T01:52:46.699Z,8.85
2019-05-26T01:53:51.230Z,8.82
2019-05-26T01:54:56.265Z,8.82
2019-05-26T01:56:00.753Z,8.79
2019-05-26T01:57:06.798Z,8.75
2019-05-26T01:58:11.217Z,8.71
2019-05-26T01:59:16.230Z,8.68
2019-05-26T02:00:21.273Z,8.66
2019-05-26T02:01:26.278Z,8.63
2019-05-26T02:02:30.777Z,8.60
2019-05-26T02:03:35.784Z,8.58
2019-05-26T02:04:40.362Z,8.56
2019-05-26T02:05:45.435Z,8.56
2019-05-26T02:06:49.919Z,8.53
2019-05-26T02:07:55.366Z,8.48
2019-05-26T02:08:59.858Z,8.48
2019-05-26T02:10:10.087Z,8.46
2019-05-26T02:11:14.912Z,8.44
2019-05-26T02:12:19.954Z,8.42
2019-05-26T02:13:24.376Z,8.40
2019-05-26T02:14:29.697Z,8.35
2019-05-26T02:15:34.504Z,8.35
2019-05-26T02:16:39.556Z,8.30
2019-05-26T02:17:43.973Z,8.20
2019-05-26T02:18:49.046Z,8.23
2019-05-26T02:19:53.485Z,8.28
2019-05-26T02:20:58.494Z,8.26
2019-05-26T02:22:03.235Z,8.23
2019-05-26T02:23:08.311Z,8.23
2019-05-26T02:24:12.796Z,8.23
2019-05-26T02:25:18.471Z,8.22
2019-05-26T02:26:22.957Z,8.18
2019-05-26T02:27:28.038Z,8.18
2019-05-26T02:28:32.592Z,8.17
2019-05-26T02:29:37.601Z,8.13
2019-05-26T02:30:42.393Z,8.13
2019-05-26T02:31:47.717Z,8.04
2019-05-26T02:32:52.226Z,8.10
2019-05-26T02:33:57.250Z,8.09
2019-05-26T02:35:01.745Z,8.09
2019-05-26T02:36:07.003Z,7.99
2019-05-26T02:37:11.439Z,7.99
2019-05-26T02:38:16.540Z,7.99
2019-05-26T02:39:20.997Z,7.98
2019-05-26T02:40:26.259Z,8.09
2019-05-26T02:41:31.024Z,8.08
2019-05-26T02:42:36.530Z,8.07
2019-05-26T02:43:40.967Z,7.98
2019-05-26T02:44:45.993Z,8.07
2019-05-26T02:45:50.429Z,8.01
2019-05-26T02:46:55.558Z,8.11
2019-05-26T02:48:00.257Z,8.12
2019-05-26T02:49:05.547Z,8.11
2019-05-26T02:50:10.421Z,8.11
2019-05-26T02:51:15.425Z,8.10
2019-05-26T02:52:19.852Z,7.99
2019-05-26T02:53:24.937Z,7.99
2019-05-26T02:54:29.349Z,8.11
2019-05-26T02:55:34.511Z,8.11
2019-05-26T02:56:39.981Z,8.13
2019-05-26T02:57:45.357Z,8.14
2019-05-26T02:58:49.850Z,8.14
2019-05-26T02:59:54.846Z,8.07
2019-05-26T03:00:59.432Z,8.07
2019-05-26T03:02:05.009Z,8.07
2019-05-26T03:03:09.770Z,8.17
2019-05-26T03:04:14.902Z,8.17
2019-05-26T03:05:19.589Z,8.16
2019-05-26T03:06:26.510Z,8.07
2019-05-26T03:07:31.776Z,8.15
2019-05-26T03:08:38.691Z,8.07
2019-05-26T03:09:44.872Z,8.16
2019-05-26T03:10:52.035Z,8.17
2019-05-26T03:11:59.171Z,8.18
2019-05-26T03:13:06.395Z,8.18
2019-05-26T03:14:11.900Z,8.18
2019-05-26T03:15:17.387Z,8.20
2019-05-26T03:16:22.233Z,8.20
2019-05-26T03:17:28.991Z,8.20
2019-05-26T03:18:35.342Z,8.22
2019-05-26T03:19:42.472Z,8.24
2019-05-26T03:20:47.079Z,8.26
2019-05-26T03:21:55.137Z,8.19
2019-05-26T03:23:02.736Z,8.29
2019-05-26T03:24:07.828Z,8.33
2019-05-26T03:25:13.118Z,8.33
2019-05-26T03:26:20.339Z,8.27
2019-05-26T03:27:24.759Z,8.40
2019-05-26T03:28:29.840Z,8.40
2019-05-26T03:29:34.602Z,8.39
2019-05-26T03:30:40.675Z,8.44
2019-05-26T03:31:45.188Z,8.49
2019-05-26T03:32:50.179Z,8.50
2019-05-26T03:33:54.607Z,8.56
2019-05-26T03:34:59.625Z,8.59
2019-05-26T03:36:04.138Z,8.62
2019-05-26T03:37:09.620Z,8.65
2019-05-26T03:38:14.029Z,8.70
2019-05-26T03:39:19.036Z,8.72
2019-05-26T03:40:23.940Z,8.76
2019-05-26T03:41:28.965Z,8.80
2019-05-26T03:42:33.457Z,8.81
2019-05-26T03:43:38.504Z,8.85
2019-05-26T03:44:42.924Z,8.90
2019-05-26T03:46:03.162Z,8.93
2019-05-26T03:47:07.948Z,8.97
2019-05-26T03:48:13.095Z,9.00
2019-05-26T03:49:17.533Z,9.06
2019-05-26T03:50:22.872Z,9.10
2019-05-26T03:51:27.301Z,9.14
2019-05-26T03:52:32.297Z,9.20
2019-05-26T03:53:36.727Z,9.23
2019-05-26T03:54:42.048Z,9.27
2019-05-26T03:55:46.470Z,9.31
2019-05-26T03:56:51.506Z,9.34
2019-05-26T03:57:55.912Z,9.37
2019-05-26T03:59:02.063Z,9.41
2019-05-26T04:00:07.886Z,9.44
2019-05-26T04:01:13.085Z,9.46
2019-05-26T04:02:17.674Z,9.51
2019-05-26T04:03:22.688Z,9.57
2019-05-26T04:04:27.112Z,9.60
2019-05-26T04:05:32.193Z,9.64
2019-05-26T04:06:36.614Z,9.67
2019-05-26T04:07:41.612Z,9.75
2019-05-26T04:08:46.049Z,9.81
2019-05-26T04:10:03.901Z,9.85
2019-05-26T04:10:57.188Z,9.88
2019-05-26T04:12:02.221Z,9.89
2019-05-26T04:13:06.644Z,9.96
2019-05-26T04:14:11.652Z,9.97
2019-05-26T04:15:16.934Z,9.96
2019-05-26T04:16:21.943Z,10.05
2019-05-26T04:17:27.740Z,10.09
2019-05-26T04:18:33.854Z,10.17
2019-05-26T04:19:38.675Z,10.24
2019-05-26T04:20:45.933Z,10.28
2019-05-26T04:21:49.832Z,10.30
2019-05-26T04:22:55.909Z,10.32
2019-05-26T04:24:00.342Z,10.36
2019-05-26T04:25:07.213Z,10.42
2019-05-26T04:26:11.659Z,10.53
2019-05-26T04:27:16.682Z,10.57
2019-05-26T04:28:21.155Z,10.57
2019-05-26T04:29:26.158Z,10.67
2019-05-26T04:30:30.598Z,10.67
2019-05-26T04:31:35.598Z,10.74
2019-05-26T04:32:40.034Z,10.74
2019-05-26T04:33:45.103Z,10.78
2019-05-26T04:34:49.610Z,10.85
2019-05-26T04:35:54.634Z,10.87
2019-05-26T04:36:59.152Z,10.89
2019-05-26T04:38:04.161Z,10.91
2019-05-26T04:39:08.591Z,10.97
2019-05-26T04:40:26.735Z,11.02
2019-05-26T04:41:19.931Z,11.03
2019-05-26T04:42:24.953Z,11.05
2019-05-26T04:43:29.374Z,11.12
2019-05-26T04:44:34.381Z,11.16
2019-05-26T04:45:38.814Z,11.12
2019-05-26T04:46:43.818Z,11.19
2019-05-26T04:47:48.257Z,11.17
2019-05-26T04:48:53.579Z,11.20
2019-05-26T04:49:58.070Z,11.20
2019-05-26T04:51:03.089Z,11.26
2019-05-26T04:52:07.525Z,11.26
2019-05-26T04:53:12.539Z,11.30
2019-05-26T04:54:16.965Z,11.17
2019-05-26T04:55:21.965Z,11.30
2019-05-26T04:56:27.004Z,11.36
2019-05-26T04:57:32.041Z,11.46
2019-05-26T04:58:36.467Z,11.46
2019-05-26T04:59:41.478Z,11.44
2019-05-26T05:00:45.893Z,11.52
2019-05-26T05:01:50.896Z,11.49
2019-05-26T05:02:55.336Z,11.50
2019-05-26T05:04:00.628Z,11.42
2019-05-26T05:05:06.971Z,11.46
2019-05-26T05:06:11.992Z,11.52
2019-05-26T05:07:16.448Z,11.53
2019-05-26T05:08:21.460Z,11.57
2019-05-26T05:09:25.885Z,11.55
2019-05-26T05:10:41.828Z,11.60
2019-05-26T05:11:37.077Z,11.67
2019-05-26T05:12:42.096Z,11.73
2019-05-26T05:13:46.521Z,11.69
2019-05-26T05:14:51.573Z,11.76
2019-05-26T05:15:56.053Z,11.85
2019-05-26T05:17:01.140Z,11.96
2019-05-26T05:18:05.648Z,11.93
2019-05-26T05:19:11.023Z,11.92
2019-05-26T05:20:15.789Z,11.86
2019-05-26T05:21:20.806Z,11.96
2019-05-26T05:22:25.231Z,12.06
2019-05-26T05:23:30.259Z,12.06
2019-05-26T05:24:34.749Z,12.16
2019-05-26T05:25:39.821Z,12.28
2019-05-26T05:26:44.594Z,12.38
2019-05-26T05:27:49.672Z,12.44
2019-05-26T05:28:54.469Z,12.51
2019-05-26T05:29:59.548Z,12.63
2019-05-26T05:31:04.036Z,12.65
2019-05-26T05:32:09.055Z,12.79
2019-05-26T05:33:13.564Z,12.65
2019-05-26T05:34:18.634Z,12.88
2019-05-26T05:35:24.034Z,12.94
2019-05-26T05:36:29.107Z,13.02
2019-05-26T05:37:33.601Z,13.01
2019-05-26T05:38:39.664Z,13.02
2019-05-26T05:39:44.084Z,13.16
2019-05-26T05:40:59.090Z,13.28
2019-05-26T05:41:55.583Z,13.24
2019-05-26T05:43:00.631Z,13.21
2019-05-26T05:44:05.169Z,13.25
2019-05-26T05:45:11.256Z,13.25
2019-05-26T05:46:15.742Z,13.24
2019-05-26T05:47:20.753Z,13.36
2019-05-26T05:48:25.262Z,13.37
2019-05-26T05:49:30.599Z,13.33
2019-05-26T05:50:38.913Z,13.53
2019-05-26T05:51:41.841Z,13.29
2019-05-26T05:52:46.262Z,13.49
2019-05-26T05:53:51.284Z,13.36
2019-05-26T05:54:56.038Z,13.38
2019-05-26T05:56:01.565Z,13.56
2019-05-26T05:57:06.092Z,13.52
2019-05-26T05:58:11.185Z,13.58
2019-05-26T05:59:15.601Z,13.78
2019-05-26T06:00:21.116Z,13.69
2019-05-26T06:01:25.822Z,13.84
2019-05-26T06:02:30.893Z,13.82
2019-05-26T06:03:35.330Z,13.81
2019-05-26T06:04:40.338Z,13.95
2019-05-26T06:05:44.765Z,13.96
2019-05-26T06:06:50.131Z,14.14
2019-05-26T06:07:55.048Z,14.41
2019-05-26T06:09:00.124Z,14.45
2019-05-26T06:10:07.841Z,14.57
2019-05-26T06:11:16.851Z,14.61
2019-05-26T06:12:20.087Z,14.71
2019-05-26T06:13:25.182Z,14.23
2019-05-26T06:14:29.745Z,14.65
2019-05-26T06:15:35.132Z,14.93
2019-05-26T06:16:39.960Z,15.19
2019-05-26T06:17:44.966Z,15.04
2019-05-26T06:18:49.477Z,15.12
2019-05-26T06:19:54.538Z,15.01
2019-05-26T06:20:59.029Z,15.03
2019-05-26T06:22:04.459Z,14.83
2019-05-26T06:23:09.953Z,14.97
2019-05-26T06:24:14.977Z,15.18
2019-05-26T06:25:19.629Z,15.19
2019-05-26T06:26:24.623Z,15.14
2019-05-26T06:27:29.900Z,15.37
2019-05-26T06:28:34.987Z,15.45
2019-05-26T06:29:55.966Z,15.47
2019-05-26T06:30:49.523Z,15.49
2019-05-26T06:31:54.363Z,15.04
2019-05-26T06:32:59.640Z,14.91
2019-05-26T06:34:04.355Z,15.14
2019-05-26T06:35:09.799Z,14.98
2019-05-26T06:36:14.221Z,14.83
2019-05-26T06:37:19.233Z,14.98
2019-05-26T06:38:24.028Z,15.20
2019-05-26T06:39:29.096Z,15.37
2019-05-26T06:40:33.880Z,15.43
2019-05-26T06:41:38.950Z,15.41
2019-05-26T06:42:43.368Z,15.41
2019-05-26T06:43:48.478Z,15.35
2019-05-26T06:44:54.051Z,15.18
2019-05-26T06:45:59.711Z,15.32
2019-05-26T06:47:04.130Z,15.28
2019-05-26T06:48:09.430Z,15.30
2019-05-26T06:49:14.113Z,15.34
2019-05-26T06:50:20.836Z,15.47
2019-05-26T06:51:25.258Z,15.42
2019-05-26T06:52:30.338Z,15.45
2019-05-26T06:53:37.431Z,15.61
2019-05-26T06:54:41.756Z,15.72
2019-05-26T06:55:46.448Z,15.88
2019-05-26T06:56:51.452Z,16.00
2019-05-26T06:57:56.190Z,16.14
2019-05-26T06:59:02.826Z,16.17
2019-05-26T07:00:07.740Z,16.23
2019-05-26T07:01:12.741Z,16.32
2019-05-26T07:02:17.225Z,16.25
2019-05-26T07:03:22.515Z,16.40
2019-05-26T07:04:26.938Z,16.35
2019-05-26T07:05:32.008Z,16.46
2019-05-26T07:06:39.221Z,16.53
2019-05-26T07:07:44.221Z,16.60
2019-05-26T07:08:48.657Z,16.71
2019-05-26T07:09:53.661Z,16.71
2019-05-26T07:10:58.148Z,17.06
2019-05-26T07:12:03.494Z,16.86
2019-05-26T07:13:07.923Z,16.71
2019-05-26T07:14:13.320Z,16.94
2019-05-26T07:15:18.299Z,17.05
2019-05-26T07:16:36.787Z,16.74
2019-05-26T07:17:29.951Z,16.64
2019-05-26T07:18:35.030Z,16.49
2019-05-26T07:19:39.467Z,16.61
2019-05-26T07:20:44.743Z,16.78
2019-05-26T07:21:49.152Z,16.72
2019-05-26T07:22:54.220Z,16.79
2019-05-26T07:23:58.664Z,16.79
2019-05-26T07:25:04.417Z,16.60
2019-05-26T07:26:09.104Z,16.79
2019-05-26T07:27:14.172Z,16.98
2019-05-26T07:28:18.591Z,17.11
2019-05-26T07:29:23.620Z,17.08
2019-05-26T07:30:28.036Z,17.25
2019-05-26T07:31:33.048Z,17.16
2019-05-26T07:32:37.687Z,17.27
2019-05-26T07:33:42.684Z,17.49
2019-05-26T07:34:47.120Z,17.61
2019-05-26T07:35:52.116Z,17.66
2019-05-26T07:36:56.873Z,17.67
2019-05-26T07:38:01.870Z,17.62
2019-05-26T07:39:08.697Z,17.43
2019-05-26T07:40:14.321Z,17.51
2019-05-26T07:41:18.720Z,17.33
2019-05-26T07:42:23.996Z,17.52
2019-05-26T07:43:28.534Z,17.41
2019-05-26T07:44:33.511Z,17.62
2019-05-26T07:45:38.066Z,18.03
2019-05-26T07:46:43.131Z,18.14
2019-05-26T07:47:47.930Z,18.28
2019-05-26T07:48:53.081Z,17.99
2019-05-26T07:49:57.577Z,17.91
2019-05-26T07:51:02.571Z,18.18
2019-05-26T07:52:06.980Z,18.20
2019-05-26T07:53:12.323Z,18.27
2019-05-26T07:54:25.660Z,18.47
2019-05-26T07:55:23.808Z,18.50
2019-05-26T07:56:28.284Z,18.62
2019-05-26T07:57:33.284Z,18.67
2019-05-26T07:58:37.763Z,18.48
2019-05-26T07:59:42.790Z,18.55
2019-05-26T08:00:47.206Z,18.61
2019-05-26T08:02:00.275Z,18.46
2019-05-26T08:03:04.735Z,18.48
2019-05-26T08:04:09.732Z,18.57
2019-05-26T08:05:14.501Z,18.46
2019-05-26T08:06:19.803Z,18.47
2019-05-26T08:07:24.221Z,18.35
2019-05-26T08:08:29.285Z,18.41
2019-05-26T08:09:33.787Z,18.32
2019-05-26T08:10:38.857Z,18.13
2019-05-26T08:11:43.543Z,18.01
2019-05-26T08:12:48.553Z,17.85
2019-05-26T08:13:52.971Z,17.88
2019-05-26T08:14:58.090Z,17.96
2019-05-26T08:16:02.782Z,18.08
2019-05-26T08:17:07.937Z,17.99
2019-05-26T08:18:12.635Z,18.04
2019-05-26T08:19:17.974Z,18.05
2019-05-26T08:20:22.560Z,18.36
2019-05-26T08:21:27.899Z,18.37
2019-05-26T08:22:32.348Z,18.54
2019-05-26T08:23:37.633Z,18.59
2019-05-26T08:24:43.055Z,18.64
2019-05-26T08:25:48.079Z,18.78
2019-05-26T08:26:52.513Z,18.64
2019-05-26T08:27:57.733Z,18.48
2019-05-26T08:29:03.468Z,18.40
2019-05-26T08:30:09.202Z,18.31
2019-05-26T08:31:13.612Z,18.29
2019-05-26T08:32:18.886Z,18.25
2019-05-26T08:33:23.306Z,18.45
2019-05-26T08:34:28.668Z,18.47
2019-05-26T08:35:33.181Z,18.48
2019-05-26T08:36:39.779Z,18.67
2019-05-26T08:37:44.477Z,18.52
2019-05-26T08:38:49.472Z,18.76
2019-05-26T08:39:55.553Z,18.84
2019-05-26T08:41:00.553Z,18.70
2019-05-26T08:42:05.204Z,18.52
2019-05-26T08:43:10.202Z,18.99
2019-05-26T08:44:14.609Z,18.87
2019-05-26T08:45:23.287Z,18.70
2019-05-26T08:46:27.751Z,18.92
2019-05-26T08:47:32.747Z,19.11
2019-05-26T08:48:37.160Z,19.48
2019-05-26T08:49:42.168Z,19.47
2019-05-26T08:50:46.886Z,19.07
2019-05-26T08:51:52.687Z,19.17
2019-05-26T08:52:57.379Z,19.33
2019-05-26T08:54:02.394Z,19.09
2019-05-26T08:55:08.063Z,19.15
2019-05-26T08:56:13.416Z,19.00
2019-05-26T08:57:17.831Z,19.12
2019-05-26T08:58:23.144Z,19.48
2019-05-26T08:59:27.558Z,19.76
2019-05-26T09:00:32.780Z,19.70
2019-05-26T09:01:37.144Z,19.84
2019-05-26T09:02:42.221Z,19.17
2019-05-26T09:03:46.751Z,19.44
2019-05-26T09:04:51.837Z,19.64
2019-05-26T09:05:56.344Z,19.54
2019-05-26T09:07:01.352Z,19.23
2019-05-26T09:08:08.143Z,19.58
2019-05-26T09:09:12.950Z,19.90
2019-05-26T09:10:17.979Z,19.78
2019-05-26T09:11:23.835Z,19.89
2019-05-26T09:12:28.248Z,19.71
2019-05-26T09:13:33.254Z,19.46
2019-05-26T09:14:37.667Z,19.39
2019-05-26T09:15:43.926Z,19.66
2019-05-26T09:16:48.683Z,19.80
2019-05-26T09:17:53.807Z,19.87
2019-05-26T09:18:58.197Z,19.75
2019-05-26T09:20:03.197Z,19.72
2019-05-26T09:21:08.048Z,19.77
2019-05-26T09:22:14.010Z,19.51
2019-05-26T09:23:18.423Z,19.71
2019-05-26T09:24:23.703Z,19.65
2019-05-26T09:25:29.269Z,19.36
2019-05-26T09:26:34.288Z,19.70
2019-05-26T09:27:39.673Z,19.55
2019-05-26T09:28:44.745Z,19.59
2019-05-26T09:29:49.174Z,19.49
2019-05-26T09:30:54.189Z,19.01
2019-05-26T09:31:58.685Z,19.33
2019-05-26T09:33:04.099Z,19.26
2019-05-26T09:34:08.524Z,19.48
2019-05-26T09:35:13.760Z,19.50
2019-05-26T09:36:18.262Z,19.40
2019-05-26T09:37:23.530Z,19.56
2019-05-26T09:38:27.952Z,19.61
2019-05-26T09:39:33.022Z,19.63
2019-05-26T09:40:37.502Z,19.68
2019-05-26T09:41:42.824Z,19.75
2019-05-26T09:42:47.432Z,20.22
2019-05-26T09:43:52.507Z,20.53
2019-05-26T09:44:56.987Z,20.69
2019-05-26T09:46:02.387Z,20.57
2019-05-26T09:47:07.213Z,20.49
2019-05-26T09:48:12.282Z,20.15
2019-05-26T09:49:16.764Z,19.77
2019-05-26T09:50:22.173Z,19.88
2019-05-26T09:51:26.683Z,20.03
2019-05-26T09:52:31.684Z,19.94
2019-05-26T09:53:36.166Z,20.03
2019-05-26T09:54:41.522Z,20.40
2019-05-26T09:55:46.270Z,20.65
2019-05-26T09:56:51.577Z,20.83
2019-05-26T09:57:55.997Z,20.76
2019-05-26T09:59:00.995Z,20.63
2019-05-26T10:00:10.820Z,20.59
2019-05-26T10:01:15.979Z,20.58
2019-05-26T10:02:20.459Z,20.55
2019-05-26T10:03:25.531Z,20.70
2019-05-26T10:04:29.980Z,20.57
2019-05-26T10:05:35.348Z,20.26
2019-05-26T10:06:39.795Z,20.39
2019-05-26T10:07:44.935Z,20.48
2019-05-26T10:08:49.363Z,20.44
2019-05-26T10:09:54.360Z,20.72
2019-05-26T10:10:58.859Z,20.83
2019-05-26T10:12:03.949Z,20.60
2019-05-26T10:13:08.827Z,20.88
2019-05-26T10:14:13.828Z,20.88
2019-05-26T10:15:19.023Z,21.19
2019-05-26T10:16:24.111Z,21.00
2019-05-26T10:17:28.712Z,21.23
2019-05-26T10:18:33.789Z,20.87
2019-05-26T10:19:38.558Z,20.99
2019-05-26T10:20:43.829Z,21.08
2019-05-26T10:21:48.408Z,21.27
2019-05-26T10:22:53.471Z,21.05
2019-05-26T10:23:57.889Z,20.55
2019-05-26T10:25:02.952Z,20.65
2019-05-26T10:26:08.812Z,20.63
2019-05-26T10:27:13.913Z,20.27
2019-05-26T10:28:18.309Z,20.29
2019-05-26T10:29:23.316Z,20.30
2019-05-26T10:30:27.799Z,20.60
2019-05-26T10:31:33.103Z,20.37
2019-05-26T10:32:37.583Z,20.57
2019-05-26T10:33:42.979Z,20.65
2019-05-26T10:34:47.780Z,20.96
2019-05-26T10:35:52.801Z,20.87
2019-05-26T10:36:57.220Z,20.75
2019-05-26T10:38:02.292Z,20.65
2019-05-26T10:39:09.024Z,20.95
2019-05-26T10:40:15.172Z,21.04
2019-05-26T10:41:19.845Z,21.32
2019-05-26T10:42:24.874Z,21.38
2019-05-26T10:43:29.555Z,21.23
2019-05-26T10:44:34.630Z,21.29
2019-05-26T10:45:39.122Z,21.13
2019-05-26T10:46:44.148Z,21.59
2019-05-26T10:47:48.813Z,21.72
2019-05-26T10:48:53.841Z,21.42
2019-05-26T10:49:58.676Z,21.63
2019-05-26T10:51:06.772Z,21.51
2019-05-26T10:52:10.874Z,21.29
2019-05-26T10:53:15.890Z,21.11
2019-05-26T10:54:20.649Z,21.17
2019-05-26T10:55:25.658Z,21.26
2019-05-26T10:56:30.086Z,20.91
2019-05-26T10:57:35.248Z,20.90
2019-05-26T10:58:40.070Z,21.09
2019-05-26T10:59:45.416Z,20.95
2019-05-26T11:00:50.183Z,20.97
2019-05-26T11:01:55.228Z,20.93
2019-05-26T11:02:59.640Z,20.97
2019-05-26T11:04:05.084Z,20.90
2019-05-26T11:05:10.147Z,20.69
2019-05-26T11:06:15.156Z,20.59
2019-05-26T11:07:19.870Z,20.49
2019-05-26T11:08:25.389Z,20.61
2019-05-26T11:09:29.810Z,20.60
2019-05-26T11:10:34.884Z,20.70
2019-05-26T11:11:39.396Z,20.55
2019-05-26T11:12:44.420Z,20.63
2019-05-26T11:14:01.810Z,21.13
2019-05-26T11:14:55.639Z,21.16
2019-05-26T11:16:00.061Z,21.02
2019-05-26T11:17:05.315Z,20.98
2019-05-26T11:18:10.010Z,21.26
2019-05-26T11:19:15.148Z,21.67
2019-05-26T11:20:19.713Z,21.96
2019-05-26T11:21:24.992Z,22.15
2019-05-26T11:22:29.430Z,21.95
2019-05-26T11:23:34.499Z,22.04
2019-05-26T11:24:38.913Z,21.87
2019-05-26T11:25:44.654Z,21.98
2019-05-26T11:26:49.530Z,21.70
2019-05-26T11:27:54.647Z,21.64
2019-05-26T11:28:59.068Z,21.74
2019-05-26T11:30:05.917Z,21.66
2019-05-26T11:31:10.328Z,21.69
2019-05-26T11:32:15.346Z,21.97
2019-05-26T11:33:19.873Z,21.82
2019-05-26T11:34:25.024Z,21.59
2019-05-26T11:35:29.434Z,21.52
2019-05-26T11:36:34.506Z,21.66
2019-05-26T11:37:38.965Z,21.57
2019-05-26T11:38:44.016Z,21.72
2019-05-26T11:39:48.443Z,22.36
2019-05-26T11:40:54.568Z,22.94
2019-05-26T11:42:12.313Z,22.83
2019-05-26T11:43:16.126Z,22.93
2019-05-26T11:44:18.142Z,22.70
2019-05-26T11:45:19.705Z,23.32
2019-05-26T11:46:24.122Z,23.68
2019-05-26T11:47:29.148Z,23.83
2019-05-26T11:48:33.851Z,23.62
2019-05-26T11:49:39.162Z,23.83
2019-05-26T11:50:43.634Z,23.76
2019-05-26T11:51:48.632Z,23.59
2019-05-26T11:52:53.077Z,22.99
2019-05-26T11:53:58.082Z,22.76
2019-05-26T11:55:02.996Z,22.72
2019-05-26T11:56:08.617Z,22.40
2019-05-26T11:57:13.335Z,22.54
2019-05-26T11:58:18.462Z,22.67
2019-05-26T11:59:22.843Z,22.61
2019-05-26T12:00:28.056Z,22.36
2019-05-26T12:01:32.478Z,22.38
2019-05-26T12:02:37.569Z,22.47
2019-05-26T12:03:41.972Z,22.35
2019-05-26T12:04:47.053Z,22.13
2019-05-26T12:05:51.576Z,21.78
2019-05-26T12:06:56.647Z,21.86
2019-05-26T12:08:01.433Z,21.82
2019-05-26T12:09:09.482Z,22.00
2019-05-26T12:10:14.537Z,22.23
2019-05-26T12:11:19.689Z,22.44
2019-05-26T12:12:24.107Z,22.56
2019-05-26T12:13:29.221Z,22.54
2019-05-26T12:14:35.493Z,22.62
2019-05-26T12:15:40.686Z,22.64
2019-05-26T12:16:45.414Z,22.57
2019-05-26T12:17:50.443Z,22.70
2019-05-26T12:18:54.852Z,22.76
2019-05-26T12:19:59.861Z,22.62
2019-05-26T12:21:04.347Z,22.87
2019-05-26T12:22:09.422Z,22.76
2019-05-26T12:23:14.134Z,22.54
2019-05-26T12:24:19.136Z,22.37
2019-05-26T12:25:23.549Z,22.24
2019-05-26T12:26:28.553Z,22.46
2019-05-26T12:27:32.973Z,22.21
2019-05-26T12:28:38.537Z,22.05
2019-05-26T12:29:42.949Z,22.05
2019-05-26T12:30:47.942Z,21.96
2019-05-26T12:31:52.357Z,22.04
2019-05-26T12:32:57.748Z,21.97
2019-05-26T12:34:02.232Z,22.16
2019-05-26T12:35:09.476Z,22.09
2019-05-26T12:36:13.890Z,22.05
2019-05-26T12:37:18.906Z,22.14
2019-05-26T12:38:24.306Z,22.25
2019-05-26T12:39:29.301Z,22.21
2019-05-26T12:40:33.999Z,22.17
2019-05-26T12:41:39.067Z,22.30
2019-05-26T12:42:43.487Z,22.55
2019-05-26T12:43:48.777Z,22.57
2019-05-26T12:44:53.312Z,22.68
2019-05-26T12:45:58.312Z,22.72
2019-05-26T12:47:02.869Z,22.78
2019-05-26T12:48:08.006Z,22.69
2019-05-26T12:49:12.519Z,22.70
2019-05-26T12:50:18.094Z,22.37
2019-05-26T12:51:22.597Z,22.22
2019-05-26T12:52:27.663Z,22.12
2019-05-26T12:53:32.105Z,22.38
2019-05-26T12:54:37.373Z,22.45
2019-05-26T12:55:41.961Z,22.60
2019-05-26T12:56:47.600Z,22.49
2019-05-26T12:57:52.138Z,22.66
2019-05-26T12:58:57.158Z,22.72
2019-05-26T13:00:01.863Z,22.55
2019-05-26T13:01:07.170Z,22.67
2019-05-26T13:02:12.008Z,22.38
2019-05-26T13:03:17.285Z,22.62
2019-05-26T13:04:21.913Z,22.41
2019-05-26T13:05:27.110Z,22.46
2019-05-26T13:06:31.524Z,22.54
2019-05-26T13:07:38.127Z,22.50
2019-05-26T13:08:43.974Z,22.61
2019-05-26T13:09:48.965Z,22.67
2019-05-26T13:10:53.454Z,22.41
2019-05-26T13:11:58.737Z,22.58
2019-05-26T13:13:03.522Z,22.39
2019-05-26T13:14:08.870Z,22.64
2019-05-26T13:15:15.200Z,23.02
2019-05-26T13:16:20.487Z,23.18
2019-05-26T13:17:24.892Z,23.13
2019-05-26T13:18:29.902Z,23.32
2019-05-26T13:19:34.611Z,23.16
2019-05-26T13:20:39.765Z,23.34
2019-05-26T13:21:44.323Z,23.26
2019-05-26T13:22:49.394Z,23.05
2019-05-26T13:23:54.084Z,22.95
2019-05-26T13:24:59.082Z,22.91
2019-05-26T13:26:03.498Z,23.14
2019-05-26T13:27:08.571Z,23.12
2019-05-26T13:28:13.056Z,23.39
2019-05-26T13:29:18.402Z,23.24
2019-05-26T13:30:25.864Z,23.03
2019-05-26T13:31:30.932Z,23.24
2019-05-26T13:32:35.689Z,23.15
2019-05-26T13:33:40.688Z,22.95
2019-05-26T13:34:45.125Z,23.08
2019-05-26T13:35:50.207Z,23.12
2019-05-26T13:36:54.664Z,23.07
2019-05-26T13:37:59.955Z,22.74
2019-05-26T13:39:07.193Z,22.55
2019-05-26T13:40:12.766Z,22.40
2019-05-26T13:41:17.498Z,22.30
2019-05-26T13:42:22.875Z,22.28
2019-05-26T13:43:27.995Z,22.13
2019-05-26T13:44:34.009Z,21.95
2019-05-26T13:45:39.449Z,22.05
2019-05-26T13:46:44.844Z,22.02
2019-05-26T13:47:49.833Z,21.95
2019-05-26T13:48:55.387Z,22.09
2019-05-26T13:50:00.245Z,22.04
2019-05-26T13:51:06.291Z,21.96
2019-05-26T13:52:12.629Z,22.02
2019-05-26T13:53:18.358Z,22.01
2019-05-26T13:54:23.172Z,21.94
2019-05-26T13:55:28.664Z,22.20
2019-05-26T13:56:33.538Z,22.18
2019-05-26T13:57:39.484Z,22.17
2019-05-26T13:58:44.358Z,22.42
2019-05-26T13:59:50.911Z,22.48
2019-05-26T14:00:56.273Z,22.62
2019-05-26T14:02:03.070Z,22.59
2019-05-26T14:03:07.913Z,22.64
2019-05-26T14:04:13.398Z,22.57
2019-05-26T14:05:18.694Z,22.47